Time;durP1;ratioP1;P1;durP2;ratioP2;P2;SDS_P1;SDS_P2;PMS_P1;PMS_P2;Temp;Humidity;BMP_temperature;BMP_pressure;BME280_temperature;BME280_humidity;BME280_pressure;Samples;Min_cycle;Max_cycle;Signal;HPM_P1;HPM_P2
2021/07/16 00:00:03;;;;;;;12.68;7.70;;;;;;;;;;143743;565;46020;-54
2021/07/16 00:02:30;;;;;;;11.80;7.82;;;;;;;;;;143733;579;47020;-54
2021/07/16 00:04:57;;;;;;;15.30;7.45;;;;;;;;;;143737;590;47010;-53
2021/07/16 00:07:24;;;;;;;11.82;7.53;;;;;;;;;;143740;588;45020;-54
2021/07/16 00:09:52;;;;;;;13.75;7.45;;;;;;;;;;143744;673;46020;-53
2021/07/16 00:12:19;;;;;;;12.75;6.70;;;;;;;;;;143740;564;47021;-54
2021/07/16 00:14:46;;;;;;;14.05;7.68;;;;;;;;;;143739;583;47010;-54
2021/07/16 00:17:13;;;;;;;10.75;7.05;;;;;;;;;;143740;613;45021;-54
2021/07/16 00:19:40;;;;;;;11.10;7.95;;;;;;;;;;143744;596;45021;-54
2021/07/16 00:22:07;;;;;;;16.25;8.27;;;;;;;;;;143743;618;47020;-54
2021/07/16 00:24:34;;;;;;;10.15;6.78;;;;;;;;;;143740;582;47010;-53
2021/07/16 00:27:01;;;;;;;11.05;7.30;;;;;;;;;;143736;587;45910;-54
2021/07/16 00:29:28;;;;;;;16.87;7.32;;;;;;;;;;143744;615;45020;-54
2021/07/16 00:31:55;;;;;;;10.73;6.82;;;;;;;;;;143740;583;47022;-54
2021/07/16 00:34:22;;;;;;;9.27;6.53;;;;;;;;;;143737;573;47010;-54
2021/07/16 00:36:49;;;;;;;13.93;7.10;;;;;;;;;;143737;708;46020;-54
2021/07/16 00:39:16;;;;;;;14.05;7.40;;;;;;;;;;143744;629;45020;-54
2021/07/16 00:41:43;;;;;;;10.50;6.72;;;;;;;;;;143741;785;47021;-54
2021/07/16 00:44:12;;;;;;;10.70;6.85;;;;;;;;;;143739;585;47010;-54
2021/07/16 00:46:39;;;;;;;9.63;7.00;;;;;;;;;;143740;629;45910;-54
2021/07/16 00:49:06;;;;;;;16.95;7.47;;;;;;;;;;143742;715;46013;-53
2021/07/16 00:51:34;;;;;;;9.52;7.20;;;;;;;;;;143732;570;47022;-54
2021/07/16 00:54:01;;;;;;;10.85;6.93;;;;;;;;;;143737;571;47010;-53
2021/07/16 00:56:28;;;;;;;19.30;6.93;;;;;;;;;;143737;608;45911;-54
2021/07/16 00:58:55;;;;;;;12.10;6.85;;;;;;;;;;143744;591;45020;-54
2021/07/16 01:01:23;;;;;;;11.60;6.65;;;;;;;;;;143742;575;47020;-54
2021/07/16 01:03:50;;;;;;;13.73;6.62;;;;;;;;;;143739;623;47010;-53
2021/07/16 01:06:18;;;;;;;13.00;6.97;;;;;;;;;;143739;564;45910;-54
2021/07/16 01:08:45;;;;;;;21.02;7.95;;;;;;;;;;143743;683;46020;-54
2021/07/16 01:11:12;;;;;;;15.45;7.75;;;;;;;;;;143740;622;47022;-54
2021/07/16 01:13:39;;;;;;;16.92;7.32;;;;;;;;;;143737;601;47010;-54
2021/07/16 01:16:06;;;;;;;16.35;7.30;;;;;;;;;;143737;586;45020;-54
2021/07/16 01:18:34;;;;;;;15.48;7.78;;;;;;;;;;143744;607;46021;-54
2021/07/16 01:21:01;;;;;;;13.25;7.22;;;;;;;;;;143739;610;47020;-54
2021/07/16 01:23:27;;;;;;;11.85;6.68;;;;;;;;;;143737;590;47010;-54
2021/07/16 01:25:56;;;;;;;13.77;7.07;;;;;;;;;;143747;569;46019;-54
2021/07/16 01:28:23;;;;;;;10.90;7.78;;;;;;;;;;143742;617;46022;-54
2021/07/16 01:30:52;;;;;;;11.85;7.47;;;;;;;;;;143738;600;47020;-54
2021/07/16 01:33:19;;;;;;;12.35;7.65;;;;;;;;;;143739;585;47011;-54
2021/07/16 01:35:46;;;;;;;11.95;7.43;;;;;;;;;;143740;603;46018;-54
2021/07/16 01:38:14;;;;;;;12.52;7.20;;;;;;;;;;143742;599;46022;-54
2021/07/16 01:40:41;;;;;;;16.12;8.02;;;;;;;;;;143733;615;47021;-54
2021/07/16 01:43:11;;;;;;;18.80;7.95;;;;;;;;;;143739;598;47010;-54
2021/07/16 01:45:40;;;;;;;14.80;7.35;;;;;;;;;;143740;570;46018;-53
2021/07/16 01:48:13;;;;;;;16.58;7.87;;;;;;;;;;143744;794;46022;-53
2021/07/16 01:50:42;;;;;;;24.25;8.57;;;;;;;;;;143741;594;47018;-54
2021/07/16 01:53:11;;;;;;;23.27;8.98;;;;;;;;;;143739;569;47010;-54
2021/07/16 01:55:40;;;;;;;24.23;8.32;;;;;;;;;;143741;569;46019;-54
2021/07/16 01:58:10;;;;;;;21.27;7.15;;;;;;;;;;143743;617;46022;-54
2021/07/16 02:00:40;;;;;;;13.40;7.10;;;;;;;;;;143740;604;47020;-54
2021/07/16 02:03:09;;;;;;;11.77;6.87;;;;;;;;;;143739;567;47010;-54
2021/07/16 02:05:39;;;;;;;16.17;8.13;;;;;;;;;;143736;601;46018;-54
2021/07/16 02:08:13;;;;;;;12.10;7.78;;;;;;;;;;143745;604;46022;-54
2021/07/16 02:10:40;;;;;;;18.42;8.20;;;;;;;;;;143741;589;47018;-53
2021/07/16 02:13:06;;;;;;;21.20;9.13;;;;;;;;;;143740;570;47010;-54
2021/07/16 02:15:36;;;;;;;16.58;9.00;;;;;;;;;;143748;594;46020;-54
2021/07/16 02:18:04;;;;;;;10.15;7.47;;;;;;;;;;143743;574;46021;-53
2021/07/16 02:20:34;;;;;;;17.27;7.47;;;;;;;;;;143740;609;47020;-54
2021/07/16 02:23:04;;;;;;;17.80;8.10;;;;;;;;;;143740;613;46916;-54
2021/07/16 02:25:31;;;;;;;19.67;8.40;;;;;;;;;;143740;581;45911;-54
2021/07/16 02:28:04;;;;;;;13.77;7.18;;;;;;;;;;143745;579;45020;-54
2021/07/16 02:30:32;;;;;;;17.10;7.45;;;;;;;;;;143736;598;47010;-54
2021/07/16 02:33:01;;;;;;;15.07;7.37;;;;;;;;;;143742;572;46020;-54
2021/07/16 02:35:32;;;;;;;12.20;7.90;;;;;;;;;;143743;618;45020;-53
2021/07/16 02:38:00;;;;;;;14.80;7.43;;;;;;;;;;143746;633;45020;-54
2021/07/16 02:40:28;;;;;;;16.37;8.40;;;;;;;;;;143742;600;47021;-54
2021/07/16 02:42:55;;;;;;;16.62;7.50;;;;;;;;;;143739;569;47010;-54
2021/07/16 02:45:23;;;;;;;13.23;7.03;;;;;;;;;;143742;619;45910;-54
2021/07/16 02:47:51;;;;;;;13.68;8.13;;;;;;;;;;143746;594;45021;-54
2021/07/16 02:50:27;;;;;;;13.73;7.93;;;;;;;;;;143741;593;47020;-54
2021/07/16 02:52:54;;;;;;;13.00;7.55;;;;;;;;;;143739;624;47020;-54
2021/07/16 02:55:21;;;;;;;10.98;6.97;;;;;;;;;;143736;571;45911;-54
2021/07/16 02:57:49;;;;;;;16.08;8.30;;;;;;;;;;143745;637;45020;-54
2021/07/16 03:00:19;;;;;;;21.48;8.73;;;;;;;;;;143738;575;47020;-54
2021/07/16 03:02:48;;;;;;;19.20;7.80;;;;;;;;;;143740;609;47010;-54
2021/07/16 03:05:29;;;;;;;15.35;7.57;;;;;;;;;;143742;572;45910;-54
2021/07/16 03:07:57;;;;;;;23.05;9.32;;;;;;;;;;143745;587;46020;-54
2021/07/16 03:10:31;;;;;;;16.12;7.65;;;;;;;;;;143740;591;47022;-53
2021/07/16 03:13:00;;;;;;;13.75;7.18;;;;;;;;;;143741;577;47010;-54
2021/07/16 03:15:27;;;;;;;17.60;8.10;;;;;;;;;;143741;600;45021;-54
2021/07/16 03:17:55;;;;;;;24.48;6.93;;;;;;;;;;143745;616;45021;-53
2021/07/16 03:20:27;;;;;;;23.75;7.57;;;;;;;;;;143733;610;47022;-53
2021/07/16 03:22:55;;;;;;;16.12;7.65;;;;;;;;;;143740;585;47011;-54
2021/07/16 03:25:23;;;;;;;22.67;8.40;;;;;;;;;;143743;581;45021;-54
2021/07/16 03:27:51;;;;;;;12.70;7.03;;;;;;;;;;143746;588;45020;-54
2021/07/16 03:30:24;;;;;;;10.90;6.60;;;;;;;;;;143741;584;47022;-53
2021/07/16 03:32:51;;;;;;;16.65;6.75;;;;;;;;;;143739;585;47011;-53
2021/07/16 03:35:22;;;;;;;14.25;7.57;;;;;;;;;;143739;644;45910;-53
2021/07/16 03:37:50;;;;;;;17.10;7.28;;;;;;;;;;143745;631;45020;-54
2021/07/16 03:40:18;;;;;;;11.57;6.70;;;;;;;;;;143741;589;47023;-54
2021/07/16 03:42:45;;;;;;;11.73;7.10;;;;;;;;;;143740;630;47010;-53
2021/07/16 03:45:14;;;;;;;21.45;7.75;;;;;;;;;;143739;654;45020;-54
2021/07/16 03:47:46;;;;;;;16.25;7.40;;;;;;;;;;143745;580;45021;-54
2021/07/16 03:50:15;;;;;;;20.77;7.60;;;;;;;;;;143744;600;46020;-54
2021/07/16 03:52:43;;;;;;;23.58;8.00;;;;;;;;;;143742;609;46010;-54
2021/07/16 03:55:11;;;;;;;16.05;7.93;;;;;;;;;;143742;591;45911;-53
2021/07/16 03:57:43;;;;;;;21.12;7.22;;;;;;;;;;143745;581;45020;-54
2021/07/16 04:00:11;;;;;;;25.67;9.05;;;;;;;;;;143741;612;47022;-54
2021/07/16 04:02:38;;;;;;;18.02;7.85;;;;;;;;;;143741;593;47010;-54
2021/07/16 04:05:05;;;;;;;23.25;8.25;;;;;;;;;;143742;602;45910;-54
2021/07/16 04:07:34;;;;;;;27.42;8.05;;;;;;;;;;143745;574;45020;-53
2021/07/16 04:10:01;;;;;;;19.65;7.00;;;;;;;;;;143735;613;47021;-53
2021/07/16 04:12:29;;;;;;;19.95;7.40;;;;;;;;;;143739;686;47010;-53
2021/07/16 04:14:56;;;;;;;16.48;6.97;;;;;;;;;;143742;621;45910;-53
2021/07/16 04:17:27;;;;;;;28.15;8.75;;;;;;;;;;143745;583;45021;-53
2021/07/16 04:19:54;;;;;;;24.58;8.57;;;;;;;;;;143743;586;47020;-53
2021/07/16 04:22:23;;;;;;;29.35;7.82;;;;;;;;;;143739;569;47010;-53
2021/07/16 04:24:51;;;;;;;23.95;7.87;;;;;;;;;;143740;581;45911;-53
2021/07/16 04:27:19;;;;;;;29.15;8.45;;;;;;;;;;143745;590;45020;-53
2021/07/16 04:29:46;;;;;;;20.67;7.72;;;;;;;;;;143741;623;47020;-53
2021/07/16 04:32:14;;;;;;;16.87;7.68;;;;;;;;;;143739;620;47011;-53
2021/07/16 04:34:42;;;;;;;34.50;9.32;;;;;;;;;;143737;718;45910;-53
2021/07/16 04:37:10;;;;;;;22.65;8.00;;;;;;;;;;143745;585;45020;-52
2021/07/16 04:39:37;;;;;;;30.02;7.75;;;;;;;;;;143743;567;47020;-53
2021/07/16 04:42:05;;;;;;;18.62;6.65;;;;;;;;;;143741;674;47010;-52
2021/07/16 04:44:32;;;;;;;19.77;6.53;;;;;;;;;;143742;657;45020;-52
2021/07/16 04:46:59;;;;;;;15.43;6.85;;;;;;;;;;143745;571;45021;-52
2021/07/16 04:49:27;;;;;;;13.32;6.75;;;;;;;;;;143739;574;47021;-52
2021/07/16 04:51:55;;;;;;;19.30;7.15;;;;;;;;;;143736;731;47010;-52
2021/07/16 04:54:22;;;;;;;22.90;7.47;;;;;;;;;;143744;573;45021;-52
2021/07/16 04:56:49;;;;;;;19.70;8.05;;;;;;;;;;143745;578;46020;-51
2021/07/16 04:59:16;;;;;;;26.15;8.32;;;;;;;;;;143735;591;47022;-52
2021/07/16 05:01:43;;;;;;;19.23;7.20;;;;;;;;;;143740;569;47010;-52
2021/07/16 05:04:10;;;;;;;31.10;9.25;;;;;;;;;;143742;581;45910;-51
2021/07/16 05:06:38;;;;;;;24.48;8.57;;;;;;;;;;143745;566;45020;-52
2021/07/16 05:09:05;;;;;;;38.83;10.10;;;;;;;;;;143740;588;47023;-51
2021/07/16 05:11:32;;;;;;;26.10;8.13;;;;;;;;;;143740;632;47010;-51
2021/07/16 05:13:59;;;;;;;33.00;8.15;;;;;;;;;;143742;594;45910;-51
2021/07/16 05:16:26;;;;;;;18.60;7.55;;;;;;;;;;143745;645;46021;-50
2021/07/16 05:18:53;;;;;;;23.58;7.82;;;;;;;;;;143741;595;47022;-51
2021/07/16 05:21:20;;;;;;;20.37;8.40;;;;;;;;;;143740;611;47010;-52
2021/07/16 05:23:47;;;;;;;21.98;7.80;;;;;;;;;;143739;580;45021;-51
2021/07/16 05:26:14;;;;;;;21.67;8.27;;;;;;;;;;143746;737;45020;-50
2021/07/16 05:28:41;;;;;;;27.37;7.90;;;;;;;;;;143743;576;47020;-51
2021/07/16 05:31:08;;;;;;;24.02;8.50;;;;;;;;;;143742;582;46011;-51
2021/07/16 05:33:35;;;;;;;22.00;8.63;;;;;;;;;;143741;589;45020;-51
2021/07/16 05:36:02;;;;;;;17.55;7.47;;;;;;;;;;143746;600;46020;-52
2021/07/16 05:38:29;;;;;;;24.33;9.30;;;;;;;;;;143740;572;47021;-52
2021/07/16 05:40:56;;;;;;;21.10;10.02;;;;;;;;;;143740;564;47010;-52
2021/07/16 05:43:23;;;;;;;27.23;7.68;;;;;;;;;;143742;585;45020;-53
2021/07/16 05:45:50;;;;;;;17.20;7.40;;;;;;;;;;143745;636;46020;-52
2021/07/16 05:48:18;;;;;;;11.90;6.87;;;;;;;;;;143734;567;47020;-52
2021/07/16 05:50:47;;;;;;;19.98;7.10;;;;;;;;;;143736;664;49010;-53
2021/07/16 05:53:15;;;;;;;18.33;6.97;;;;;;;;;;143742;589;45021;-53
2021/07/16 05:55:43;;;;;;;14.00;7.07;;;;;;;;;;143746;564;46020;-51
2021/07/16 05:58:10;;;;;;;19.23;7.15;;;;;;;;;;143740;657;47022;-52
2021/07/16 06:00:37;;;;;;;17.65;6.82;;;;;;;;;;143742;564;46026;-52
2021/07/16 06:03:05;;;;;;;22.95;7.68;;;;;;;;;;143741;567;45910;-52
2021/07/16 06:05:32;;;;;;;30.27;8.52;;;;;;;;;;143742;645;47012;-51
2021/07/16 06:08:04;;;;;;;28.85;7.40;;;;;;;;;;143741;608;47022;-52
2021/07/16 06:10:31;;;;;;;15.75;6.00;;;;;;;;;;143741;602;47010;-52
2021/07/16 06:12:58;;;;;;;19.52;6.60;;;;;;;;;;143737;573;45020;-51
2021/07/16 06:15:25;;;;;;;17.37;5.97;;;;;;;;;;143745;602;45021;-52
2021/07/16 06:17:52;;;;;;;12.23;5.60;;;;;;;;;;143743;564;47020;-53
2021/07/16 06:20:20;;;;;;;21.98;6.05;;;;;;;;;;143740;569;47010;-52
2021/07/16 06:22:47;;;;;;;15.52;5.97;;;;;;;;;;143741;606;45021;-52
2021/07/16 06:25:17;;;;;;;16.60;6.00;;;;;;;;;;143745;589;46020;-52
2021/07/16 06:27:45;;;;;;;9.63;5.82;;;;;;;;;;143743;682;47020;-53
2021/07/16 06:30:14;;;;;;;18.85;5.75;;;;;;;;;;143740;600;47011;-52
2021/07/16 06:32:41;;;;;;;12.10;5.70;;;;;;;;;;143740;614;46910;-53
2021/07/16 06:35:09;;;;;;;12.30;5.57;;;;;;;;;;143744;623;45020;-53
2021/07/16 06:37:37;;;;;;;14.52;5.97;;;;;;;;;;143733;658;47021;-53
2021/07/16 06:40:06;;;;;;;14.30;6.07;;;;;;;;;;143737;577;47010;-54
2021/07/16 06:42:34;;;;;;;11.20;5.50;;;;;;;;;;143739;598;45910;-53
2021/07/16 06:45:01;;;;;;;19.60;6.07;;;;;;;;;;143743;602;45021;-53
2021/07/16 06:47:28;;;;;;;14.30;6.12;;;;;;;;;;143738;565;47028;-53
2021/07/16 06:49:55;;;;;;;16.73;6.25;;;;;;;;;;143737;648;47010;-53
2021/07/16 06:52:22;;;;;;;20.48;5.60;;;;;;;;;;143740;575;47021;-55
2021/07/16 06:54:49;;;;;;;11.48;5.50;;;;;;;;;;143742;570;45021;-71
2021/07/16 06:57:16;;;;;;;13.80;6.57;;;;;;;;;;143739;580;47020;-55
2021/07/16 06:59:43;;;;;;;15.63;5.55;;;;;;;;;;143737;592;47011;-55
2021/07/16 07:02:10;;;;;;;22.33;6.03;;;;;;;;;;143733;582;47018;-55
2021/07/16 07:04:37;;;;;;;14.48;6.00;;;;;;;;;;143737;569;45031;-55
2021/07/16 07:07:04;;;;;;;16.52;6.15;;;;;;;;;;143738;618;47022;-56
2021/07/16 07:09:31;;;;;;;11.25;5.78;;;;;;;;;;143739;589;47010;-55
2021/07/16 07:11:58;;;;;;;21.23;6.97;;;;;;;;;;143740;588;45910;-55
2021/07/16 07:14:25;;;;;;;16.48;6.72;;;;;;;;;;143742;586;45021;-55
2021/07/16 07:16:52;;;;;;;19.75;6.95;;;;;;;;;;143739;576;47020;-55
2021/07/16 07:19:19;;;;;;;14.50;6.80;;;;;;;;;;143738;581;47010;-55
2021/07/16 07:21:46;;;;;;;17.52;6.85;;;;;;;;;;143740;566;45911;-56
2021/07/16 07:24:13;;;;;;;16.33;6.40;;;;;;;;;;143743;616;46020;-56
2021/07/16 07:26:41;;;;;;;13.75;6.43;;;;;;;;;;143732;632;47022;-55
2021/07/16 07:29:08;;;;;;;15.13;6.43;;;;;;;;;;143736;578;47010;-56
2021/07/16 07:31:35;;;;;;;13.13;6.82;;;;;;;;;;143740;575;45910;-55
2021/07/16 07:34:02;;;;;;;16.50;6.28;;;;;;;;;;143743;572;45020;-55
2021/07/16 07:36:30;;;;;;;13.57;6.28;;;;;;;;;;143739;589;47022;-55
2021/07/16 07:38:57;;;;;;;13.82;6.57;;;;;;;;;;143739;564;47010;-56
2021/07/16 07:41:25;;;;;;;11.75;6.55;;;;;;;;;;143740;575;45910;-55
2021/07/16 07:43:53;;;;;;;11.30;6.43;;;;;;;;;;143742;653;45021;-56
2021/07/16 07:46:20;;;;;;;16.67;6.15;;;;;;;;;;143740;566;47023;-56
2021/07/16 07:48:47;;;;;;;11.40;6.10;;;;;;;;;;143741;598;45916;-56
2021/07/16 07:51:14;;;;;;;14.10;6.47;;;;;;;;;;143737;578;45910;-56
2021/07/16 07:53:41;;;;;;;14.82;6.30;;;;;;;;;;143739;589;49020;-55
2021/07/16 07:56:09;;;;;;;15.93;6.40;;;;;;;;;;143737;565;47022;-56
2021/07/16 07:58:36;;;;;;;13.62;5.90;;;;;;;;;;143737;571;47011;-56
2021/07/16 08:01:03;;;;;;;21.37;6.55;;;;;;;;;;143738;569;45910;-55
2021/07/16 08:03:30;;;;;;;17.95;6.00;;;;;;;;;;143744;586;46020;-55
2021/07/16 08:05:57;;;;;;;11.82;6.68;;;;;;;;;;143739;564;47021;-56
2021/07/16 08:08:24;;;;;;;13.02;6.28;;;;;;;;;;143738;569;47010;-56
2021/07/16 08:10:51;;;;;;;13.95;5.97;;;;;;;;;;143740;591;45910;-56
2021/07/16 08:13:18;;;;;;;14.87;6.50;;;;;;;;;;143742;602;46010;-55
2021/07/16 08:15:45;;;;;;;15.35;6.50;;;;;;;;;;143734;626;47020;-55
2021/07/16 08:18:12;;;;;;;13.77;6.35;;;;;;;;;;143738;587;47036;-55
2021/07/16 08:20:39;;;;;;;21.60;6.45;;;;;;;;;;143740;572;45912;-55
2021/07/16 08:23:05;;;;;;;14.60;5.43;;;;;;;;;;143739;622;46013;-56
2021/07/16 08:25:35;;;;;;;11.48;5.62;;;;;;;;;;143738;573;48044;-56
2021/07/16 08:28:03;;;;;;;14.48;5.97;;;;;;;;;;143736;666;49028;-54
2021/07/16 08:30:30;;;;;;;15.35;6.32;;;;;;;;;;143738;577;45021;-55
2021/07/16 08:32:57;;;;;;;13.82;5.82;;;;;;;;;;143742;573;45020;-55
2021/07/16 08:35:24;;;;;;;19.37;5.80;;;;;;;;;;143739;590;47020;-55
2021/07/16 08:37:51;;;;;;;13.77;5.87;;;;;;;;;;143738;608;47012;-55
2021/07/16 08:40:18;;;;;;;12.10;6.25;;;;;;;;;;143733;573;45912;-54
2021/07/16 08:42:48;;;;;;;12.37;6.45;;;;;;;;;;143743;591;45020;-55
2021/07/16 08:45:15;;;;;;;20.80;6.43;;;;;;;;;;143739;565;47021;-55
2021/07/16 08:47:43;;;;;;;10.68;5.45;;;;;;;;;;143736;585;47012;-55
2021/07/16 08:50:13;;;;;;;13.90;5.80;;;;;;;;;;143741;578;45912;-55
2021/07/16 08:52:43;;;;;;;17.52;6.30;;;;;;;;;;143742;634;46021;-54
2021/07/16 08:55:11;;;;;;;10.85;6.10;;;;;;;;;;143737;599;47022;-54
2021/07/16 08:57:38;;;;;;;14.38;8.43;;;;;;;;;;143739;614;47012;-54
2021/07/16 09:00:08;;;;;;;13.65;6.35;;;;;;;;;;143740;609;45021;-54
2021/07/16 09:02:48;;;;;;;14.85;6.20;;;;;;;;;;143742;621;46012;-54
2021/07/16 09:05:15;;;;;;;16.50;6.65;;;;;;;;;;143725;588;49012;-54
2021/07/16 09:07:49;;;;;;;22.05;6.03;;;;;;;;;;143739;586;46020;-54
2021/07/16 09:10:20;;;;;;;12.23;5.75;;;;;;;;;;143741;658;45020;-54
2021/07/16 09:12:56;;;;;;;15.13;6.37;;;;;;;;;;143744;581;46020;-54
2021/07/16 09:15:23;;;;;;;17.90;8.00;;;;;;;;;;143740;569;47023;-54
2021/07/16 09:17:53;;;;;;;10.90;6.95;;;;;;;;;;143738;583;47020;-54
2021/07/16 09:20:25;;;;;;;18.25;6.10;;;;;;;;;;143738;587;45912;-54
2021/07/16 09:23:13;;;;;;;22.30;8.98;;;;;;;;;;143742;587;46021;-54
2021/07/16 09:25:41;;;;;;;15.80;10.85;;;;;;;;;;143741;587;47020;-55
2021/07/16 09:28:23;;;;;;;16.27;6.68;;;;;;;;;;143739;578;46023;-54
2021/07/16 09:30:51;;;;;;;16.27;6.72;;;;;;;;;;143734;591;47020;-54
2021/07/16 09:33:18;;;;;;;14.45;6.82;;;;;;;;;;143742;580;46012;-54
2021/07/16 09:35:46;;;;;;;15.25;6.28;;;;;;;;;;143740;581;47020;-55
2021/07/16 09:38:15;;;;;;;19.58;7.47;;;;;;;;;;143739;593;47012;-55
2021/07/16 09:40:53;;;;;;;13.48;5.95;;;;;;;;;;143738;600;45912;-55
2021/07/16 09:43:23;;;;;;;16.35;6.30;;;;;;;;;;143743;639;46020;-55
2021/07/16 09:46:07;;;;;;;18.75;6.47;;;;;;;;;;143740;576;47023;-55
2021/07/16 09:48:44;;;;;;;13.90;6.47;;;;;;;;;;143738;615;47012;-54
2021/07/16 09:51:27;;;;;;;8.80;5.68;;;;;;;;;;143741;603;45021;-55
2021/07/16 09:53:58;;;;;;;14.10;6.05;;;;;;;;;;143744;617;45034;-55
2021/07/16 09:56:32;;;;;;;12.48;6.22;;;;;;;;;;143733;599;47013;-55
2021/07/16 09:59:06;;;;;;;20.17;6.20;;;;;;;;;;143739;566;47012;-55
2021/07/16 10:01:35;;;;;;;13.25;5.87;;;;;;;;;;143740;583;45020;-54
2021/07/16 10:04:03;;;;;;;16.45;6.53;;;;;;;;;;143742;596;46012;-54
2021/07/16 10:06:30;;;;;;;16.05;6.10;;;;;;;;;;143737;569;47021;-54
2021/07/16 10:08:57;;;;;;;9.00;5.75;;;;;;;;;;143739;595;47012;-54
2021/07/16 10:11:27;;;;;;;12.90;6.60;;;;;;;;;;143739;598;45020;-55
2021/07/16 10:13:56;;;;;;;15.32;5.87;;;;;;;;;;143743;564;46012;-55
2021/07/16 10:16:24;;;;;;;12.10;5.90;;;;;;;;;;143735;580;47020;-55
2021/07/16 10:18:53;;;;;;;12.70;6.72;;;;;;;;;;143736;573;47012;-54
2021/07/16 10:21:21;;;;;;;12.85;6.25;;;;;;;;;;143733;579;45913;-55
2021/07/16 10:23:50;;;;;;;13.85;6.25;;;;;;;;;;143744;584;46020;-54
2021/07/16 10:26:21;;;;;;;24.00;6.68;;;;;;;;;;143740;583;47028;-55
2021/07/16 10:28:49;;;;;;;11.75;5.95;;;;;;;;;;143740;569;46027;-54
2021/07/16 10:31:42;;;;;;;13.05;6.20;;;;;;;;;;143739;576;45020;-54
2021/07/16 10:34:33;;;;;;;14.13;6.50;;;;;;;;;;143743;603;46020;-54
2021/07/16 10:37:31;;;;;;;15.85;5.90;;;;;;;;;;143739;599;47020;-55
2021/07/16 10:39:58;;;;;;;11.52;6.00;;;;;;;;;;143738;581;47012;-55
2021/07/16 10:42:43;;;;;;;15.20;6.15;;;;;;;;;;143737;624;45912;-55
2021/07/16 10:45:11;;;;;;;7.97;5.43;;;;;;;;;;143742;564;45021;-55
2021/07/16 10:47:49;;;;;;;9.20;6.22;;;;;;;;;;143732;592;47020;-55
2021/07/16 10:50:39;;;;;;;16.30;6.20;;;;;;;;;;143738;570;47013;-55
2021/07/16 10:53:08;;;;;;;13.07;6.47;;;;;;;;;;143739;577;45910;-55
2021/07/16 10:56:04;;;;;;;13.38;5.70;;;;;;;;;;143743;591;46020;-55
2021/07/16 10:58:51;;;;;;;13.05;6.20;;;;;;;;;;143739;591;47021;-55
2021/07/16 11:01:35;;;;;;;15.40;5.68;;;;;;;;;;143738;621;47012;-54
2021/07/16 11:04:04;;;;;;;11.80;5.97;;;;;;;;;;143737;570;45913;-55
2021/07/16 11:06:51;;;;;;;11.12;5.25;;;;;;;;;;143743;580;46021;-55
2021/07/16 11:09:46;;;;;;;13.13;5.70;;;;;;;;;;143740;623;47022;-54
2021/07/16 11:12:35;;;;;;;10.40;5.85;;;;;;;;;;143736;626;48036;-55
2021/07/16 11:15:03;;;;;;;13.13;6.37;;;;;;;;;;143734;669;45913;-55
2021/07/16 11:17:36;;;;;;;12.05;6.07;;;;;;;;;;143739;596;48012;-55
2021/07/16 11:20:18;;;;;;;15.73;6.20;;;;;;;;;;143739;652;47022;-55
2021/07/16 11:23:06;;;;;;;10.20;5.80;;;;;;;;;;143737;591;47012;-54
2021/07/16 11:25:34;;;;;;;15.05;6.15;;;;;;;;;;143740;565;45912;-55
2021/07/16 11:28:01;;;;;;;15.55;5.95;;;;;;;;;;143742;592;46013;-55
2021/07/16 11:30:28;;;;;;;10.85;5.25;;;;;;;;;;143740;571;47020;-54
2021/07/16 11:33:03;;;;;;;11.38;5.78;;;;;;;;;;143737;582;47012;-55
2021/07/16 11:35:30;;;;;;;13.07;6.18;;;;;;;;;;143737;566;47021;-54
2021/07/16 11:37:58;;;;;;;12.05;5.93;;;;;;;;;;143741;570;46012;-55
2021/07/16 11:40:29;;;;;;;10.35;6.35;;;;;;;;;;143732;590;47022;-56
2021/07/16 11:42:57;;;;;;;11.55;6.10;;;;;;;;;;143736;600;47013;-55
2021/07/16 11:45:30;;;;;;;11.30;5.70;;;;;;;;;;143734;639;46020;-55
2021/07/16 11:47:59;;;;;;;11.23;6.60;;;;;;;;;;143741;609;46018;-56
2021/07/16 11:50:26;;;;;;;17.75;6.05;;;;;;;;;;143740;588;47021;-55
2021/07/16 11:52:55;;;;;;;13.80;6.50;;;;;;;;;;143738;575;47012;-55
2021/07/16 11:55:29;;;;;;;13.38;6.35;;;;;;;;;;143740;661;45483;-55
2021/07/16 11:58:04;;;;;;;19.55;6.65;;;;;;;;;;143743;651;46021;-55
2021/07/16 12:00:34;;;;;;;21.85;6.10;;;;;;;;;;143738;583;47020;-55
2021/07/16 12:03:19;;;;;;;11.57;5.62;;;;;;;;;;143738;601;47012;-54
2021/07/16 12:05:51;;;;;;;14.93;6.37;;;;;;;;;;143736;703;45021;-55
2021/07/16 12:08:24;;;;;;;9.43;6.20;;;;;;;;;;143738;606;46020;-55
2021/07/16 12:11:01;;;;;;;9.70;5.60;;;;;;;;;;143742;638;45022;-55
2021/07/16 12:13:28;;;;;;;12.73;6.03;;;;;;;;;;143739;575;46013;-55
2021/07/16 12:16:07;;;;;;;15.70;5.90;;;;;;;;;;143738;571;45912;-55
2021/07/16 12:18:37;;;;;;;16.17;6.50;;;;;;;;;;143742;596;46020;-55
2021/07/16 12:21:06;;;;;;;15.55;5.75;;;;;;;;;;143740;583;47020;-54
2021/07/16 12:23:34;;;;;;;13.10;5.97;;;;;;;;;;143738;571;47012;-55
2021/07/16 12:26:32;;;;;;;14.52;5.75;;;;;;;;;;143740;615;45913;-55
2021/07/16 12:29:09;;;;;;;19.58;6.20;;;;;;;;;;143742;725;45023;-54
2021/07/16 12:31:36;;;;;;;11.25;5.70;;;;;;;;;;143731;578;47020;-54
2021/07/16 12:34:23;;;;;;;12.82;5.85;;;;;;;;;;143738;630;47012;-54
2021/07/16 12:36:50;;;;;;;11.32;5.70;;;;;;;;;;143739;578;45912;-55
2021/07/16 12:39:21;;;;;;;15.10;6.00;;;;;;;;;;143737;587;46020;-55
2021/07/16 12:41:48;;;;;;;14.15;6.87;;;;;;;;;;143740;596;47021;-54
2021/07/16 12:44:16;;;;;;;10.02;6.00;;;;;;;;;;143739;651;46012;-55
2021/07/16 12:46:43;;;;;;;12.75;6.07;;;;;;;;;;143740;564;45020;-54
2021/07/16 12:49:12;;;;;;;13.30;6.37;;;;;;;;;;143744;564;45021;-54
2021/07/16 12:51:40;;;;;;;14.82;6.30;;;;;;;;;;143741;583;47023;-55
2021/07/16 12:54:21;;;;;;;16.58;5.82;;;;;;;;;;143740;587;47012;-55
2021/07/16 12:56:49;;;;;;;12.70;6.28;;;;;;;;;;143735;577;45021;-55
2021/07/16 12:59:28;;;;;;;10.45;5.82;;;;;;;;;;143743;604;45020;-55
2021/07/16 13:01:57;;;;;;;8.25;6.10;;;;;;;;;;143740;654;47020;-55
2021/07/16 13:04:25;;;;;;;14.23;6.55;;;;;;;;;;143739;682;47013;-54
2021/07/16 13:06:54;;;;;;;18.37;6.28;;;;;;;;;;143739;566;45912;-54
2021/07/16 13:09:37;;;;;;;15.65;6.12;;;;;;;;;;143745;590;45020;-55
2021/07/16 13:12:18;;;;;;;14.75;6.47;;;;;;;;;;143740;617;47022;-54
2021/07/16 13:14:55;;;;;;;16.02;6.15;;;;;;;;;;143738;581;47012;-54
2021/07/16 13:17:33;;;;;;;12.43;5.57;;;;;;;;;;143739;569;45913;-54
2021/07/16 13:20:09;;;;;;;15.77;6.25;;;;;;;;;;143743;583;45021;-55
2021/07/16 13:22:38;;;;;;;17.30;6.03;;;;;;;;;;143731;580;47022;-54
2021/07/16 13:25:08;;;;;;;12.00;5.55;;;;;;;;;;143738;710;47012;-55
2021/07/16 13:27:36;;;;;;;11.35;5.87;;;;;;;;;;143738;686;45913;-55
2021/07/16 13:30:06;;;;;;;10.18;5.62;;;;;;;;;;143743;569;46020;-54
2021/07/16 13:32:33;;;;;;;12.30;5.90;;;;;;;;;;143739;616;47020;-55
2021/07/16 13:35:00;;;;;;;13.13;5.87;;;;;;;;;;143740;688;47012;-54
2021/07/16 13:37:27;;;;;;;12.93;5.37;;;;;;;;;;143741;566;45912;-54
2021/07/16 13:39:55;;;;;;;10.55;5.80;;;;;;;;;;143745;569;46020;-55
2021/07/16 13:42:22;;;;;;;10.57;5.85;;;;;;;;;;143740;665;47023;-54
2021/07/16 13:44:49;;;;;;;14.40;5.25;;;;;;;;;;143741;661;47020;-54
2021/07/16 13:47:17;;;;;;;11.93;6.18;;;;;;;;;;143735;590;45912;-54
2021/07/16 13:49:45;;;;;;;14.23;5.68;;;;;;;;;;143744;676;45021;-55
2021/07/16 13:52:12;;;;;;;18.45;5.97;;;;;;;;;;143739;601;47020;-55
2021/07/16 13:54:39;;;;;;;9.73;5.10;;;;;;;;;;143739;564;47012;-55
2021/07/16 13:57:06;;;;;;;16.02;5.80;;;;;;;;;;143738;615;46013;-55
2021/07/16 13:59:33;;;;;;;13.68;5.53;;;;;;;;;;143742;598;46020;-55
2021/07/16 14:02:00;;;;;;;14.30;5.85;;;;;;;;;;143739;668;47022;-54
2021/07/16 14:04:27;;;;;;;14.13;5.75;;;;;;;;;;143742;672;46021;-55
2021/07/16 14:06:54;;;;;;;11.80;5.57;;;;;;;;;;143740;613;45020;-54
2021/07/16 14:09:21;;;;;;;11.00;5.57;;;;;;;;;;143744;587;45020;-55
2021/07/16 14:11:48;;;;;;;10.65;5.55;;;;;;;;;;143734;801;47021;-55
2021/07/16 14:14:15;;;;;;;12.15;5.43;;;;;;;;;;143739;617;47012;-54
2021/07/16 14:16:42;;;;;;;13.68;5.47;;;;;;;;;;143740;607;45020;-55
2021/07/16 14:19:10;;;;;;;17.80;6.00;;;;;;;;;;143743;638;45021;-54
2021/07/16 14:21:37;;;;;;;11.23;5.20;;;;;;;;;;143740;637;47020;-54
2021/07/16 14:24:04;;;;;;;20.48;5.80;;;;;;;;;;143740;674;47012;-55
2021/07/16 14:26:31;;;;;;;11.65;5.00;;;;;;;;;;143741;658;45913;-54
2021/07/16 14:28:58;;;;;;;12.68;5.40;;;;;;;;;;143743;716;45020;-54
2021/07/16 14:31:26;;;;;;;10.50;5.22;;;;;;;;;;143740;607;47020;-55
2021/07/16 14:33:54;;;;;;;11.57;5.47;;;;;;;;;;143739;637;47013;-54
2021/07/16 14:36:21;;;;;;;7.68;5.03;;;;;;;;;;143736;601;45912;-55
2021/07/16 14:38:48;;;;;;;12.48;5.18;;;;;;;;;;143745;656;46020;-55
2021/07/16 14:41:16;;;;;;;13.10;5.93;;;;;;;;;;143741;616;47021;-55
2021/07/16 14:43:46;;;;;;;10.40;5.70;;;;;;;;;;143742;604;47012;-54